< < Back
Terminal Aerodrome Forecast


Current Version              Previous Versions:   1  2  3  4  5  6  7  8  9  

Terminal Aerodrome Forecast

073
FTUS44 KOHX 301600 AAA
TAFCSV
TAF AMD
KCSV 301620Z 3016/3112 18008G17KT P6SM SCT030 BKN120
     FM302000 18008G15KT P6SM VCSH BKN035
     FM310200 20005KT P6SM BKN070 BKN150
     FM310700 21005KT 6SM -SHRA VCTS BKN020CB OVC030=

Latest METAR

691
SAUS70 KWBC 301600 RRG
MTRCSV
METAR KCSV 301553Z AUTO 17009G16KT 10SM SCT034 BKN100 24/15 A3020 RMK
AO2 SLP207 T02440150


USA.gov is the U.S. government's official web portal to all federal, state and local government web resources and services.